Terminal Aerodrome Forecast
Issued by NWS Melbourne, FL

Home | Current Version | Previous Version | Text Only | Print | Product List | Glossary On
Versions: 1 2 3 4 5 6 7 8 9 10 11 12 13 14 15 16 17 18 19 20 21 22 23 24 25 26 27
000
FTUS42 KMLB 260317 AAB
TAFMCO
TAF AMD
KMCO 260317Z 2603/2624 VRB04KT P6SM FEW040 BKN100
     FM261300 19006KT P6SM SCT030 SCT120
     FM262000 VRB06KT P6SM VCTS BKN035CB
      TEMPO 2621/2624 3SM TSRA BKN030CB=

USA.gov is the U.S. government's official web portal to all federal, state and local government web resources and services.